Tiempo atmosférico en la estación meteorológica de Tarancón, Cuenca (808 m.)



Fecha
DESCASC
Temp. máxima en grados centígrados (hora)
DESCASC
Temp. mínima en grados centígrados (hora)
DESCASC
Temp. media en grados centígrados
DESCASC
Racha de viento máxima en m/sg (hora)
DESCASC
Velocidad máxima media en intervalos de 10 minutos(hora)
DESCASC
Precipitaciones diarias en mm
DESCASC
Precipitaciones de 00:00 a 06:00 en mm
DESCASC
Precipitaciones de 06:00 a 12:00 en mm
DESCASC
Precipitaciones de 12:00 a 18:00 en mm
DESCASC
Precipitaciones de 18:00 a 24:00 en mm
DESCASC
28-02-2021 16.6 (15:30) 4.6 (05:00) 10.6 14.17 (14:40) 8.33 (10:50) 0 0 0 0 0
27-02-2021 21.8 (16:00) 5.1 (07:50) 13.4 5.28 (23:50) 3.33 (23:50) 0 0 0 0 0
26-02-2021 18.6 (15:50) 6.2 (08:30) 12.4 11.11 (00:50) 5.83 (11:40) 0 0 0 0 0
25-02-2021 14.8 (16:40) 5.7 (00:00) 10.3 13.33 (05:00) 7.5 (11:30) 0 0 0 0 0
24-02-2021 16.7 (16:10) 4.9 (00:00) 10.8 13.89 (11:10) 8.06 (17:10) 0 0 0 0 0
23-02-2021 17.4 (15:50) 2.6 (00:00) 10 8.89 (13:30) 4.72 (13:50) 0 0 0 0 0
22-02-2021 8.4 (18:50) 3.8 (00:00) 6.1 11.67 (04:10) 6.11 (03:40) 0 0 0 0 0
21-02-2021 10.9 (16:20) 5.4 (00:00) 8.1 18.61 (04:20) 9.17 (04:30) 0 0 0 0 0
20-02-2021 21.4 (15:20) 6.3 (00:00) 13.8 13.61 (23:20) 7.22 (23:20) 0 0 0 0 0
19-02-2021 21.1 (17:00) 4.8 (00:00) 13 12.22 (17:30) 6.67 (17:30) 0 0 0 0 0
18-02-2021 19.8 (16:10) 6.6 (00:00) 13.2 10.28 (14:40) 5 (14:30) 0 0 0 0 0
17-02-2021 21 (17:40) 5.6 (00:00) 13.3 5.83 (14:00) 3.33 (14:20) 0 0 0 0 0
16-02-2021 19.5 (16:00) 4.2 (00:00) 11.8 10.28 (01:20) 6.11 (01:20) 0 0 0 0 0
15-02-2021 17.5 (16:20) 6.1 (00:00) 11.8 13.89 (02:30) 6.67 (04:30) 0 0 0 0 0
14-02-2021 19.1 (16:30) 4.8 (00:00) 12 12.22 (22:50) 6.67 (23:20) 0 0 0 0 0
13-02-2021 17.4 (16:30) 3.6 (00:00) 10.5 7.78 (17:20) 3.89 (12:50) 0 0 0 0 0
12-02-2021 14.2 (17:00) 6.9 (00:00) 10.5 14.17 (14:00) 6.94 (08:30) 0 0 0 0 0
11-02-2021 13.2 (15:50) 5.8 (00:00) 9.5 7.22 (12:20) 4.72 (12:20) 0 0 0 0 0
10-02-2021 14.3 (16:40) 5.5 (00:00) 9.9 21.11 (06:00) 11.11 (06:00) 0 0 0 0 0
09-02-2021 8.6 (15:00) 4.4 (00:00) 6.5 22.5 (16:30) 11.39 (16:30) 0 0 0 0 0
08-02-2021 10.1 (17:00) 4.8 (00:00) 7.5 18.33 (19:10) 10 (17:10) 0 0 0 0 0
07-02-2021 11.1 (15:40) 4 (00:00) 7.6 12.78 (20:20) 7.22 (20:20) 0 0 0 0 0
06-02-2021 11.4 (14:10) 6.6 (00:00) 9 9.44 (13:40) 5.83 (15:00) 0 0 0 0 0
05-02-2021 17.4 (15:20) 8.4 (00:00) 12.9 14.72 (20:30) 8.06 (12:50) 0 0 0 0 0
04-02-2021 16.5 (14:40) 7 (00:00) 11.8 11.11 (15:10) 6.11 (15:50) 0 0 0 0 0
03-02-2021 15.3 (15:10) 7.3 (00:00) 11.3 10.28 (12:30) 5 (12:30) 0 0 0 0 0
02-02-2021 14.4 (15:10) 6.4 (00:00) 10.4 13.61 (03:40) 7.78 (02:10) 0 0 0 0 0
01-02-2021 15.5 (16:20) 7.5 (00:00) 11.5 16.67 (08:20) 9.72 (10:50) 0 0 0 0 0
31-01-2021 11.3 (21:20) 5.9 (00:00) 8.6 16.11 (15:30) 8.89 (15:50) 0 0 0 0 0
30-01-2021 13.2 (14:50) 6.6 (00:00) 9.9 17.5 (18:00) 9.72 (16:30) 0 0 0 0 0

Gráficas

Temp. máximas Temp. mínimas Temp. medias Precipitaciones Rachas de viento máximas Velocidades máximas media en intervalos de 10 minutos

Datos horarios

Fecha y hora oficial Temperatura (ºC) Velocidad del viento (km/h) Dirección del viento Racha (km/h) Dirección de racha Precipitación (mm) Presión (hPa) Tendencia (hPa) Humedad (%)
2021-02-28 23:00:00 6.9 26 Sudeste 48 Sudeste 0 925.6 -- 72
2021-02-28 22:00:00 7.5 17 Sudeste 47 Sudeste 0 925.2 -- 75
2021-02-28 21:00:00 8.2 24 Sudeste 48 Sudeste 0 925.1 -- 73
2021-02-28 20:00:00 9.3 20 Sudeste 45 Sudeste 0 924.9 -- 66
2021-02-28 19:00:00 11 25 Sudeste 47 Sudeste 0 924.4 -- 52
2021-02-28 18:00:00 13.8 24 Sudeste 49 Sudeste 0 924.3 -- 43
2021-02-28 17:00:00 15.3 26 Sudeste 50 Sudeste 0 924.1 -- 40
2021-02-28 16:00:00 16.3 23 Sudeste 48 Sudeste 0 924.2 -- 36
2021-02-28 15:00:00 16.1 23 Sudeste 51 Sudeste 0 924.7 -- 36
2021-02-28 14:00:00 15.1 24 Sudeste 45 Sur 0 925.1 -- 41
2021-02-28 13:00:00 13.1 23 Sudeste 45 Sur 0 925.9 -- 50
2021-02-28 12:00:00 11.5 26 Sudeste 49 Sudeste 0 926.3 -- 56
2021-02-28 11:00:00 8.7 30 Sudeste 49 Sudeste 0 926.2 -- 64
2021-02-28 10:00:00 7.2 23 Sudeste 45 Sur 0 926 -- 69
2021-02-28 09:00:00 5.3 17 Sudeste 34 Sur 0 925.8 -- 77
2021-02-28 08:00:00 4.7 15 Sudeste 37 Sudeste 0 925.5 -- 79
2021-02-28 07:00:00 4.9 18 Sudeste 40 Sudeste 0 925.5 -- 79
2021-02-28 06:00:00 4.9 15 Sudeste 45 Sudeste 0 925.7 -- 80
2021-02-28 05:00:00 4.6 19 Sudeste 41 Sudeste 0 925.8 -- 83
2021-02-28 04:00:00 6.2 21 Sudeste 39 Sudeste 0 925.9 -- 73
2021-02-28 03:00:00 6.8 16 Sudeste 33 Sudeste 0 926.3 -- 69
2021-02-28 02:00:00 7.5 20 Sudeste 35 Sudeste 0 926.5 -- 61
2021-02-28 01:00:00 8.5 17 Sudeste 32 Sudeste 0 926.5 -- 53
2021-02-28 00:00:00 9.6 11 Sudeste 19 Sudeste 0 926.5 -- 51
2021-02-27 23:00:00 10.3 8 Sudeste 17 Sur 0 926.6 -- 47
2021-02-27 22:00:00 11.3 10 Sudeste 17 Sudeste 0 926.4 -- 42
2021-02-27 21:00:00 12.2 8 Sudeste 14 Sudeste 0 926.4 -- 37
2021-02-27 20:00:00 13.8 5 Sur 12 Sur 0 926.5 -- 35
2021-02-27 19:00:00 17.1 7 Sudoeste 14 Sudoeste 0 926.5 -- 28
2021-02-27 18:00:00 20.8 4 Noroeste 15 Norte 0 926.6 -- 23
2021-02-27 17:00:00 20 9 Norte 18 Nordeste 0 927.1 -- 25
2021-02-27 16:00:00 21.3 3 Noroeste 17 Norte 0 927.4 -- 23
2021-02-27 15:00:00 19 6 Norte -- -- -- 928.3 -- 28
2021-02-27 14:00:00 19.9 6 Sur 13 Sur 0 929 -- 26
2021-02-27 13:00:00 16.7 5 Sudeste 12 Nordeste 0 930 -- 35
2021-02-27 12:00:00 13.8 4 Sudeste 10 Norte 0 930.5 -- 47
2021-02-27 11:00:00 9.7 0 Calma 6 Norte 0 930.5 -- 72
2021-02-27 10:00:00 7.5 2 Noroeste 7 Noroeste 0 930.6 -- 80
2021-02-27 09:00:00 6.5 3 Oeste 8 Norte 0 930.4 -- 82
2021-02-27 08:00:00 5.9 6 Sudeste 7 Sudeste 0 930 -- 85
2021-02-27 07:00:00 5.8 4 Nordeste 12 Norte 0 930.1 -- 83
2021-02-27 06:00:00 6.8 3 Este 9 Este 0 930.1 -- 79
2021-02-27 05:00:00 7.3 5 Nordeste 11 Nordeste 0 930.3 -- 81
2021-02-27 04:00:00 7.4 5 Este 17 Este 0 930.7 -- 80
2021-02-27 03:00:00 8 5 Este 15 Este 0 931.5 -- 78
2021-02-27 02:00:00 7.6 4 Nordeste 8 Este 0 931.8 -- 80
2021-02-27 01:00:00 8 0 Calma 17 Sudeste 0 931.9 -- 77
2021-02-27 00:00:00 8.9 10 Sudeste 22 Sudeste 0 932 -- 74
2021-02-26 23:00:00 9.6 8 Sudeste 18 Sudeste 0 932.2 -- 71
2021-02-26 22:00:00 10.6 8 Sudeste 21 Sudeste 0 932 -- 68
2021-02-26 21:00:00 11.3 14 Sudeste 22 Sudeste 0 931.8 -- 65
2021-02-26 20:00:00 12.2 8 Sudeste 18 Sudeste 0 931.7 -- 63
2021-02-26 19:00:00 14.2 6 Sudeste 18 Sudeste 0 931.5 -- 56
2021-02-26 18:00:00 16.8 11 Sudeste 24 Sudeste 0 931.5 -- 38
2021-02-26 17:00:00 17.5 10 Sudeste 23 Sudeste 0 931.5 -- 34
2021-02-26 16:00:00 17.1 11 Sudeste 23 Sudeste 0 931.7 -- 37
2021-02-26 15:00:00 18 9 Sudeste 28 Sudeste 0 932.3 -- 39
2021-02-26 14:00:00 16.4 15 Sudeste 33 Sudeste 0 932.8 -- 43
2021-02-26 13:00:00 13.3 15 Sudeste 33 Sudeste 0 933.3 -- 54
2021-02-26 12:00:00 11.1 20 Sudeste 36 Este 0 933.4 -- 65
2021-02-26 11:00:00 8.8 17 Sudeste 30 Sudeste 0 933.6 -- 77
2021-02-26 10:00:00 7.3 16 Sudeste 28 Sudeste 0 933.3 -- 83
2021-02-26 09:00:00 6.5 12 Sudeste 26 Sudeste 0 932.7 -- 85
2021-02-26 08:00:00 6.3 9 Este 21 Este 0 932.4 -- 85
2021-02-26 07:00:00 6.6 8 Este 22 Sudeste 0 932.1 -- 85
2021-02-26 06:00:00 6.9 13 Sudeste 27 Sudeste 0 932 -- 84
2021-02-26 05:00:00 7.2 12 Sudeste 31 Este 0 932.2 -- 84
2021-02-26 04:00:00 7.6 14 Sudeste 33 Este 0 932.5 -- 84
2021-02-26 03:00:00 8 17 Este 37 Este 0 932.6 -- 83
2021-02-26 02:00:00 8.3 17 Sudeste 35 Sudeste 0 932.9 -- 83
2021-02-26 01:00:00 8.9 16 Este 40 Este 0 933.1 -- 81
2021-02-26 00:00:00 9.7 15 Este 30 Este 0 933.2 -- 75
2021-02-25 23:00:00 10.3 15 Este 26 Este 0 933 -- 69
2021-02-25 22:00:00 10.6 9 Este 18 Este 0 932.8 -- 65
2021-02-25 21:00:00 11 4 Nordeste 10 Este 0 932.5 -- 64
2021-02-25 20:00:00 11.8 5 Este 15 Sudeste 0 932.1 -- 61
2021-02-25 19:00:00 12.5 9 Este 20 Este 0 931.8 -- 61
2021-02-25 18:00:00 13.4 12 Este 22 Este 0 931.7 -- 58
2021-02-25 17:00:00 14 12 Este 22 Este 0 931.8 -- 55
2021-02-25 16:00:00 14.5 13 Este 28 Este 0 932 -- 54
2021-02-25 15:00:00 14.2 17 Sudeste 31 Sudeste 0 932.3 -- 54
2021-02-25 14:00:00 13.8 16 Sudeste 36 Sudeste 0 932.6 -- 54
2021-02-25 13:00:00 12.6 22 Sudeste 43 Sudeste 0 932.9 -- 59
2021-02-25 12:00:00 11.2 23 Sudeste 45 Sudeste 0 933 -- 64
2021-02-25 11:00:00 9.2 23 Sudeste 46 Sudeste 0 932.9 -- 73
2021-02-25 10:00:00 7.2 25 Sudeste 45 Sudeste 0 933 -- 79
2021-02-25 09:00:00 6 21 Sudeste 41 Sudeste 0 932.6 -- 84
2021-02-25 08:00:00 5.8 21 Sudeste 38 Sudeste 0 932 -- 84
2021-02-25 07:00:00 6 21 Sudeste 41 Sudeste 0 931.7 -- 84
2021-02-25 06:00:00 6.2 19 Sudeste 44 Sudeste 0 932 -- 85
2021-02-25 05:00:00 6.3 23 Sudeste 48 Sudeste 0 931.9 -- 85
2021-02-25 04:00:00 6.6 20 Sudeste 35 Sudeste 0 932.6 -- 85
2021-02-25 03:00:00 6.9 18 Sudeste 40 Sudeste 0 933 -- 83
2021-02-25 02:00:00 7 20 Sudeste 38 Sudeste 0 933.3 -- 86
2021-02-25 01:00:00 7.1 18 Sudeste 32 Sudeste 0 933.5 -- 85
2021-02-25 00:00:00 7.6 18 Sudeste 39 Sudeste 0 933.9 -- 80
2021-02-24 23:00:00 8 20 Sudeste 40 Sudeste 0 933.9 -- 77
2021-02-24 22:00:00 8.7 20 Sudeste 33 Este 0 933.6 -- 75
2021-02-24 21:00:00 9.5 18 Sudeste 35 Sudeste 0 933.6 -- 72
2021-02-24 20:00:00 10.3 15 Sudeste 39 Sudeste 0 933.5 -- 70
2021-02-24 19:00:00 12 15 Sudeste 39 Sudeste 0 933.4 -- 63
2021-02-24 18:00:00 14.9 19 Sudeste 48 Sudeste 0 933.4 -- 52
2021-02-24 17:00:00 16 26 Sudeste 46 Sudeste 0 933.4 -- 48
2021-02-24 16:00:00 16.5 21 Sudeste 42 Sudeste 0 934.4 -- 50
2021-02-24 15:00:00 15.9 23 Sudeste 44 Sudeste 0 935.2 -- 51
2021-02-24 14:00:00 14.2 23 Sudeste 40 Sur 0 935.8 -- 58
2021-02-24 13:00:00 11.7 24 Sudeste 43 Sudeste 0 936.8 -- 69
2021-02-24 12:00:00 11.1 23 Sudeste 50 Sudeste 0 937.2 -- 72
2021-02-24 11:00:00 9.4 23 Sudeste 46 Sudeste 0 937.3 -- 80
2021-02-24 10:00:00 7.8 21 Sudeste 37 Sudeste 0 937.3 -- 86
2021-02-24 09:00:00 6.2 22 Sudeste 40 Sudeste 0 937.2 -- 91
2021-02-24 08:00:00 5.3 22 Sudeste 39 Sudeste 0 936.6 -- 87
2021-02-24 07:00:00 4.9 13 Sudeste 30 Sudeste 0 936.5 -0.8 89
2021-02-24 06:00:00 5.2 14 Sudeste 30 Sudeste 0 936.7 -0.9 89
2021-02-24 05:00:00 5.3 17 Sudeste 31 Sudeste 0 936.8 -- 89
2021-02-24 04:00:00 5.7 19 Sudeste 40 Sudeste 0 937.3 -- 88
2021-02-24 03:00:00 6.1 23 Sudeste 43 Sudeste 0 937.6 -- 87
2021-02-24 02:00:00 6.7 26 Sudeste 47 Sudeste 0 937.7 -0.3 84
2021-02-24 01:00:00 6.8 19 Sudeste 35 Sudeste 0 938 -- 79
2021-02-24 00:00:00 6.7 12 Sudeste 25 Sudeste 0 938 -- 76
2021-02-23 23:00:00 7.3 11 Sudeste 21 Sudeste 0 938 -- 72
2021-02-23 22:00:00 7.9 14 Sudeste 24 Sudeste 0 937.7 -- 68
2021-02-23 21:00:00 8.4 9 Sudeste 15 Sudeste 0 937.7 0.9 68
2021-02-23 20:00:00 9.5 9 Sudeste 17 Sudeste 0 937.4 -- 65
2021-02-23 19:00:00 11.9 10 Sudeste 24 Este 0 936.9 -- 56
2021-02-23 18:00:00 14.4 14 Sudeste 29 Sudeste 0 936.8 -- 48
2021-02-23 17:00:00 14.3 13 Sudeste 26 Sudeste 0 936.8 -- 46
2021-02-23 16:00:00 15.2 13 Sudeste 28 Sudeste 0 936.8 -- 45
2021-02-23 15:00:00 16 14 Sudeste 29 Sudeste 0 936.7 -- 44
2021-02-23 14:00:00 12.9 17 Sudeste 32 Sudeste 0 937 -- 52
2021-02-23 13:00:00 12.3 11 Sudeste 27 Sudeste 0 937.2 -- 58
2021-02-23 12:00:00 10.8 13 Sudeste 26 Este 0 937.1 -- 65
2021-02-23 11:00:00 8.4 12 Sudeste 23 Sudeste 0 936.8 -- 75
2021-02-23 10:00:00 6.1 12 Sudeste 21 Sudeste 0 936 -- 85
2021-02-23 09:00:00 4 9 Sudeste 15 Este 0 935.4 -- 88
2021-02-23 08:00:00 4 9 Este 14 Este 0 934.3 -- 86
2021-02-23 07:00:00 3.9 5 Este 9 Este 0 933.6 -- 86
2021-02-23 06:00:00 3 3 Sudeste 6 Este 0 933.3 -- 91
2021-02-23 05:00:00 2.8 3 Sudoeste 6 Sudoeste 0 932.6 -- 89
2021-02-23 04:00:00 3.2 2 Sudeste 6 Sudeste 0 932.4 -- 87
2021-02-23 03:00:00 3.6 0 Calma 5 Este 0 931.9 -- 84
2021-02-23 02:00:00 4.4 3 Norte 4 Norte 0 931.4 -- 82
2021-02-23 01:00:00 5.2 3 Este 5 Este 0 930.8 -- 80
2021-02-23 00:00:00 5.7 0 Calma 8 Norte 0 930.5 -- 79
2021-02-22 23:00:00 6.5 5 Sudeste 11 Sudeste 0 929.8 -- 77
2021-02-22 22:00:00 7.1 5 Este 13 Este 0 929.2 -- 74
2021-02-22 21:00:00 7.2 8 Este 13 Este 0 928.5 -- 76
2021-02-22 20:00:00 7.6 6 Nordeste 11 Este 0 927.7 -- 70
2021-02-22 19:00:00 8.2 4 Nordeste 11 Nordeste 0 926.7 -- 69
2021-02-22 18:00:00 8.1 3 Noroeste 11 Noroeste 0 925.8 -- 67
2021-02-22 17:00:00 8 6 Noroeste 23 Oeste 0 925 -- 63
2021-02-22 16:00:00 7.5 10 Noroeste 21 Noroeste 0 924.3 -- 67
2021-02-22 15:00:00 6.9 9 Noroeste 22 Noroeste 0 923.9 -- 72
2021-02-22 14:00:00 6.6 9 Oeste 27 Oeste 0 923.6 -- 74
2021-02-22 13:00:00 6.4 12 Oeste 28 Oeste 0 923.5 -- 77
2021-02-22 12:00:00 5.9 13 Oeste 35 Noroeste 0 923.3 -- 80
2021-02-22 11:00:00 5.2 13 Noroeste 31 Oeste 0 922.5 -- 86
2021-02-22 10:00:00 4.2 15 Oeste 34 Oeste 0 921.6 -- 88
2021-02-22 09:00:00 3.9 18 Oeste 38 Oeste 0 920.3 -- 90
2021-02-22 08:00:00 4 15 Oeste 34 Oeste 0 919.4 -- 89
2021-02-22 07:00:00 4.2 16 Oeste 31 Oeste 0 918.6 2.1 90
2021-02-22 06:00:00 4.5 14 Oeste 33 Oeste 0 917.8 -- 89
2021-02-22 05:00:00 4.5 15 Oeste 42 Oeste 0 917.2 -- 91
2021-02-22 04:00:00 4.7 21 Oeste 40 Oeste 0 916.5 -- 89
2021-02-22 03:00:00 4.9 19 Oeste 33 Sudoeste 0 916.4 -- 93
2021-02-22 02:00:00 4.4 15 Oeste 31 Oeste 0 915.7 -- 91
2021-02-22 01:00:00 4.5 14 Oeste 28 Oeste 0 914.7 -- 93
2021-02-22 00:00:00 5.4 11 Oeste 28 Noroeste 0 914.1 -- 93
2021-02-21 23:00:00 5.9 15 Oeste 31 Oeste 0 913.7 -- 93
2021-02-21 22:00:00 7.2 16 Oeste 32 Sudoeste 0 913 1.8 91
2021-02-21 21:00:00 8.4 18 Sudoeste 33 Sudoeste 0 912.4 -- 84
2021-02-21 20:00:00 9.7 10 Sudeste 23 Sudeste 0 911.7 -- 79
2021-02-21 19:00:00 10 13 Sudeste 30 Sudeste 0 911.2 -- 74
2021-02-21 18:00:00 10.4 16 Sudeste 31 Sudeste 0 910.8 -- 70
2021-02-21 17:00:00 10.6 16 Sudeste 33 Sudeste 0 911 -- 68
2021-02-21 16:00:00 10.7 19 Sudeste 40 Sudeste 0 911.2 -- 69
2021-02-21 15:00:00 10.8 20 Sudeste 44 Sudeste 0 911.6 -- 68
2021-02-21 14:00:00 10.6 15 Sudeste 38 Sudeste 0 912.6 -- 68
2021-02-21 13:00:00 9.8 24 Sudeste 59 Sudeste 0 913.9 -- 72
2021-02-21 12:00:00 8.9 26 Sudeste 55 Sudeste 0 913.6 -- 74
2021-02-21 11:00:00 8.2 27 Sudeste 47 Sudeste 0 913.7 -- 77
2021-02-21 10:00:00 7.8 22 Sudeste 41 Sudeste 0 914.1 -- 79
2021-02-21 09:00:00 7 20 Sudeste 37 Sudeste 0 914 -- 81
2021-02-21 08:00:00 7.3 17 Sudeste 45 Sudeste 0 914 -- 78
2021-02-21 07:00:00 7.8 21 Sudeste 40 Sudeste 0 913.7 -- 73
2021-02-21 06:00:00 7.7 24 Sudeste 54 Sudeste 0 914.4 -- 74
2021-02-21 05:00:00 7.4 27 Sudeste 67 Sudeste 0 914.8 -- 77
2021-02-21 04:00:00 7.3 32 Sudeste 59 Sudeste 0 915.5 -- 79
2021-02-21 03:00:00 7.5 24 Sudeste 48 Sudeste 0 916.5 -- 77
2021-02-21 02:00:00 7.7 23 Sudeste 54 Sudeste 0 916.9 -- 75
2021-02-21 01:00:00 7.9 30 Sudeste 57 Sudeste 0 916.9 -- 75
2021-02-21 00:00:00 8.7 26 Sudeste 49 Este 0 917.3 -- 73
2021-02-20 23:00:00 9.9 24 Sudeste 42 Sudeste 0 917.5 -- 66
2021-02-20 22:00:00 11.3 20 Sudeste 37 Sudeste 0 917.6 -- 57
2021-02-20 21:00:00 12.5 13 Sudeste 30 Sudeste 0 918.1 -- 41
2021-02-20 20:00:00 15 14 Sur 36 Sudeste 0 918.1 -- 24
2021-02-20 19:00:00 15.8 10 Sur 24 Sudoeste 0 918 -- 23
2021-02-20 18:00:00 18.7 12 Sudoeste 33 Sudoeste 0 918.2 -- 20
2021-02-20 17:00:00 19.9 14 Sur 41 Sur 0 918.3 -- 19
2021-02-20 16:00:00 19.4 15 Sur 43 Sudeste 0 918.6 -- 20
2021-02-20 15:00:00 20.2 19 Sur 42 Sur 0 919.1 -- 19
2021-02-20 14:00:00 18.6 24 Sur 45 Sudoeste 0 920.2 -- 21
2021-02-20 13:00:00 18 18 Sur 40 Sudeste 0 921.1 -- 24
2021-02-20 12:00:00 15.6 17 Sur 36 Sur 0 921.5 -- 29
2021-02-20 11:00:00 11.7 17 Sudeste 35 Sudeste 0 921.7 -- 48
2021-02-20 10:00:00 8.8 13 Sudeste 27 Sudeste 0 921.9 -- 58
2021-02-20 09:00:00 6.7 17 Sudeste 30 Sudeste 0 921.4 0.2 67
2021-02-20 08:00:00 6.4 13 Sudeste 27 Sudeste 0 920.9 -- 69
2021-02-20 07:00:00 7.1 15 Sudeste 32 Sudeste 0 921.5 -- 68
2021-02-20 06:00:00 6.8 19 Sudeste 36 Sudeste 0 921.2 -- 70
2021-02-20 05:00:00 7 14 Sudeste 29 Sudeste 0 921.6 -- 68
2021-02-20 04:00:00 7.4 13 Sudeste 21 Sudeste 0 921.7 -1.2 54
2021-02-20 03:00:00 7.8 10 Sudeste 18 Sudeste 0 922.2 -- 52
2021-02-20 02:00:00 8 9 Sudeste 22 Sur 0 922.9 -- 51
2021-02-20 01:00:00 8.8 10 Sudeste 19 Sudeste 0 922.9 -- 49
2021-02-20 00:00:00 9.6 10 Sudeste 19 Sur 0 923.3 -- 46
2021-02-19 23:00:00 10.3 6 Sur 14 Sudeste 0 923.4 0.1 44
2021-02-19 22:00:00 11 8 Sudeste 15 Sudeste 0 923.3 -- 42
2021-02-19 21:00:00 12.2 8 Sudeste 15 Sur 0 923.3 -- 39
2021-02-19 20:00:00 13.8 6 Sur 13 Sur 0 923.3 -- 33
2021-02-19 19:00:00 15.4 9 Sudoeste 31 Sudoeste 0 923.1 -- 29
2021-02-19 18:00:00 18.6 21 Sudoeste 44 Sudoeste 0 923.3 -- 19
2021-02-19 17:00:00 20.9 16 Sudoeste 39 Sur 0 923.3 -1.3 15
2021-02-19 16:00:00 20.9 15 Sudoeste 37 Sur 0 923.3 -- 18
2021-02-19 15:00:00 19.9 18 Sudoeste 32 Sudoeste 0 923.9 -- 22
2021-02-19 14:00:00 18.9 14 Sur 33 Sur 0 924.6 -- 25
2021-02-19 13:00:00 16.5 10 Sur 29 Sudeste 0 925.5 -- 31
2021-02-19 12:00:00 13 11 Sur 26 Sudeste 0 926 -- 48
2021-02-19 11:00:00 10.1 14 Sudeste 25 Sur 0 925.9 -- 60
2021-02-19 10:00:00 7.2 12 Sudeste 21 Sudeste 0 925.8 -- 69
2021-02-19 09:00:00 5.3 10 Sudeste 19 Sudeste 0 925.4 -- 70
2021-02-19 08:00:00 5 12 Sudeste 19 Sudeste 0 925 -- 69
2021-02-19 07:00:00 5.7 12 Sudeste 20 Sudeste 0 925 -- 66
2021-02-19 06:00:00 5.5 11 Sudeste 18 Sudeste 0 924.8 -- 67
2021-02-19 05:00:00 5.7 9 Sudeste 18 Sur 0 924.7 -- 67
2021-02-19 04:00:00 6.5 9 Sudeste 14 Sudeste 0 925 -- 63
2021-02-19 03:00:00 7.5 5 Sudeste 8 Sudeste 0 925.2 -- 59
2021-02-19 02:00:00 7.8 8 Sudeste 11 Sudeste 0 925.3 -- 59
2021-02-19 01:00:00 8.1 3 Sur 11 Sur 0 925.5 -- 59
2021-02-19 00:00:00 8.9 5 Sur 13 Sudoeste 0 925.9 -- 58
2021-02-18 23:00:00 9 4 Sur 8 Sudoeste 0 925.9 -- 59
2021-02-18 22:00:00 10.1 4 Sudoeste 8 Sudoeste 0 925.6 -- 54
2021-02-18 21:00:00 11 5 Oeste 8 Oeste 0 925.3 -- 51
2021-02-18 20:00:00 12.3 4 Oeste 7 Oeste 0 924.8 -- 44
2021-02-18 19:00:00 14.7 3 Noroeste 12 Oeste 0 924.3 -- 38
2021-02-18 18:00:00 17.6 5 Noroeste 19 Noroeste 0 924 -- 29
2021-02-18 17:00:00 19.1 9 Oeste 24 Oeste 0 924 -- 25
2021-02-18 16:00:00 19.6 11 Oeste 29 Oeste 0 924 -- 27
2021-02-18 15:00:00 18.2 17 Oeste 37 Oeste 0 924.2 -- 26
2021-02-18 14:00:00 17.7 15 Sudoeste 26 Oeste 0 924.7 -- 26
2021-02-18 13:00:00 16.3 7 Sur 16 Sudoeste 0 924.8 -- 37
2021-02-18 12:00:00 13.3 7 Sur 16 Sudeste 0 924.9 -- 48
2021-02-18 11:00:00 10.6 8 Sur 14 Sur 0 925 -- 56
2021-02-18 10:00:00 7.9 9 Sudeste 17 Sur 0 924.6 -- 62
2021-02-18 09:00:00 6.8 6 Sur 15 Sur 0 924.2 -- 62
2021-02-18 08:00:00 6.8 6 Sudeste 14 Sur 0 923.8 -- 60
2021-02-18 07:00:00 7.2 6 Sudeste 18 Sudeste 0 923.5 -- 56
2021-02-18 06:00:00 6.9 9 Sudeste 17 Sudeste 0 923.5 -- 58
2021-02-18 05:00:00 7.5 11 Sudeste 19 Sudeste 0 923.8 -- 56
2021-02-18 04:00:00 7.8 10 Sudeste 21 Sudeste 0 924.1 -- 56
2021-02-18 03:00:00 7.9 10 Sudeste 17 Sur 0 924.5 -- 57
2021-02-18 02:00:00 8.2 11 Sudeste 20 Sur 0 924.8 -- 57
2021-02-18 01:00:00 9.4 11 Sudeste 19 Sudeste 0 925.1 -- 54
2021-02-18 00:00:00 9.5 6 Sur 15 Sudeste 0 925.4 -- 54
2021-02-17 23:00:00 9.7 7 Sudeste 16 Sudeste 0 925.6 -- 55
2021-02-17 22:00:00 10.6 9 Sudeste 15 Sudeste 0 925.7 -- 53
2021-02-17 21:00:00 12.1 8 Sudeste 19 Sudeste 0 925.5 -- 47
2021-02-17 20:00:00 13.4 8 Sudeste 14 Sudeste 0 925.6 -- 46
2021-02-17 19:00:00 15.8 6 Sur 14 Sudoeste 0 925.6 -- 40
2021-02-17 18:00:00 19.4 8 Sudeste 15 Sur 0 925.9 -- 31
2021-02-17 17:00:00 20.4 8 Sudoeste 21 Sudoeste 0 926.4 -- 30
2021-02-17 16:00:00 19.4 10 Sudoeste 19 Oeste 0 926.8 -- 32
2021-02-17 15:00:00 18.7 8 Sudoeste 20 Sudoeste 0 927.3 -- 32
2021-02-17 14:00:00 18.5 11 Sudoeste 21 Sudoeste 0 928 -- 38
2021-02-17 13:00:00 15.6 11 Sur 21 Sur 0 928.9 -- 52
2021-02-17 12:00:00 11.6 9 Sur 19 Sudeste 0 929.4 -- 68
2021-02-17 11:00:00 9.6 9 Sudeste 17 Sur 0 929.6 -- 69
2021-02-17 10:00:00 7.4 9 Sudeste 18 Sudeste 0 929.5 -- 76
2021-02-17 09:00:00 6 10 Sudeste 16 Sudeste 0 929.2 -- 78
2021-02-17 08:00:00 5.9 9 Sudeste 12 Sudeste 0 929 -- 79
2021-02-17 07:00:00 6.2 7 Sudeste 10 Sudeste 0 929.1 -- 79
2021-02-17 06:00:00 6.2 8 Sudeste 12 Sudeste 0 929.3 -- 78
2021-02-17 05:00:00 6.4 6 Sudeste 10 Sudeste 0 929.4 -- 77
2021-02-17 04:00:00 6.6 4 Sudeste 12 Sudeste 0 929.9 -- 76
2021-02-17 03:00:00 7 2 Sudeste 7 Noroeste 0 930 -- 74
2021-02-17 02:00:00 7.3 0 Calma 4 Sudeste 0 930.3 -- 73
2021-02-17 01:00:00 7.8 2 Norte 6 Norte 0 930.5 -- 71
2021-02-17 00:00:00 8.5 3 Nordeste 6 Noroeste 0 930.8 -- 69
2021-02-16 23:00:00 9 3 Norte 7 Noroeste 0 930.6 -- 66
2021-02-16 22:00:00 9.5 0 Calma 6 Noroeste 0 930.5 -- 65
2021-02-16 21:00:00 10.9 3 Norte 8 Noroeste 0 930.6 -- 60
2021-02-16 20:00:00 12.2 4 Sudoeste 7 Sur 0 930.4 -- 58
2021-02-16 19:00:00 14 4 Sudoeste 16 Sudoeste 0 930.3 -- 50
2021-02-16 18:00:00 16 10 Sudoeste 23 Oeste 0 930.2 -- 42
2021-02-16 17:00:00 18.2 15 Oeste 23 Sudoeste 0 930.6 -- 32
2021-02-16 16:00:00 19.5 7 Sudoeste 20 Sudoeste 0 931 -- 31
2021-02-16 15:00:00 18 7 Sudoeste 22 Sudoeste 0 931.5 -- 37
2021-02-16 14:00:00 16.4 10 Sudoeste 22 Sur 0 932.1 -- 46
2021-02-16 13:00:00 13.7 11 Sur 21 Sur 0 932.8 -- 55
2021-02-16 12:00:00 10.8 10 Sur 24 Sudeste 0 932.7 -- 66
2021-02-16 11:00:00 7.9 13 Sudeste 23 Sudeste 0 932.7 -- 77
2021-02-16 10:00:00 5.7 9 Sudeste 28 Sudeste 0 932.7 -- 82
2021-02-16 09:00:00 4.5 16 Sudeste 27 Sudeste 0 932 -- 85
2021-02-16 08:00:00 4.3 16 Sudeste 27 Sudeste 0 931.7 -- 86
2021-02-16 07:00:00 4.3 15 Sudeste 31 Sudeste 0 932 -- 88
2021-02-16 06:00:00 4.3 18 Sudeste 31 Sudeste 0 932.3 -- 91
2021-02-16 05:00:00 4.5 19 Sudeste 31 Sudeste 0 932.6 -- 91
2021-02-16 04:00:00 4.6 19 Sudeste 31 Sudeste 0 933 -- 90
2021-02-16 03:00:00 5 19 Sudeste 36 Sudeste 0 933.6 -- 87
2021-02-16 02:00:00 5.7 19 Sudeste 37 Sudeste 0 933.9 -- 84
2021-02-16 01:00:00 6.1 20 Sudeste 36 Sudeste 0 934.4 -- 82
2021-02-16 00:00:00 6.5 19 Sudeste 37 Sudeste 0 934.7 -- 79
2021-02-15 23:00:00 7.1 21 Sudeste 36 Sudeste 0 934.9 -- 77
2021-02-15 22:00:00 8 18 Sudeste 33 Sudeste 0 934.7 -- 73
2021-02-15 21:00:00 8.6 14 Sudeste 27 Este 0 934.5 -- 72
2021-02-15 20:00:00 9.9 13 Sudeste 23 Sudeste 0 934.6 -- 67
2021-02-15 19:00:00 11.9 12 Sudeste 28 Sudeste 0 934.5 -- 60
2021-02-15 18:00:00 15 15 Sudeste 30 Sudeste 0 934.5 -- 49
2021-02-15 17:00:00 16.8 17 Sudeste 30 Sudeste 0 934.8 -- 43
2021-02-15 16:00:00 16.7 16 Sudeste 29 Sudeste 0 935 -- 44
2021-02-15 15:00:00 16.1 15 Sudeste 30 Sudeste 0 935.5 -- 46
2021-02-15 14:00:00 15.4 15 Sudeste 32 Sudeste 0 936.2 -- 50
2021-02-15 13:00:00 13.3 18 Sudeste 35 Sudeste 0 937 -- 57
2021-02-15 12:00:00 10.7 21 Sudeste 43 Sudeste 0 937.3 -- 68
2021-02-15 11:00:00 9.2 21 Sudeste 42 Sudeste 0 937.2 -- 73
2021-02-15 10:00:00 7.8 22 Sudeste 45 Sudeste 0 936.5 -- 81
2021-02-15 09:00:00 6.5 21 Sudeste 40 Sudeste 0 936 -- 85
2021-02-15 08:00:00 6.1 19 Sudeste 31 Sudeste 0 935.6 -- 87
2021-02-15 07:00:00 6.2 14 Sudeste 29 Sudeste 0 935.7 -- 86
2021-02-15 06:00:00 6.2 15 Sudeste 37 Sudeste 0 935.6 -- 86
2021-02-15 05:00:00 6.7 23 Sudeste 42 Sudeste 0 935.1 -- 84
2021-02-15 04:00:00 6.8 22 Sudeste 40 Sudeste 0 935.4 -- 84
2021-02-15 03:00:00 6.9 21 Sudeste 50 Sudeste 0 935.8 -- 84
2021-02-15 02:00:00 7 20 Sudeste 41 Sudeste 0 936 -- 83
2021-02-15 01:00:00 7 20 Sudeste 39 Sudeste 0 935.9 -- 84
2021-02-15 00:00:00 7.2 22 Sudeste 42 Sudeste 0 935.7 -- 82
2021-02-14 23:00:00 7.7 23 Sudeste 44 Sudeste 0 935.4 -- 77
2021-02-14 22:00:00 8.8 20 Sudeste 34 Sudeste 0 935.2 -- 70
2021-02-14 21:00:00 9.9 12 Sudeste 28 Sudeste 0 935 -- 69
2021-02-14 20:00:00 11.1 12 Sudeste 20 Sudeste 0 934.5 -- 62
2021-02-14 19:00:00 12.7 9 Sudeste 32 Sudeste 0 934.1 0.2 54
2021-02-14 18:00:00 16.2 13 Sudeste 29 Sur 0 933.9 0 40
2021-02-14 17:00:00 18.2 13 Sudeste 25 Sudeste 0 934 -- 36
2021-02-14 16:00:00 18.7 12 Sudeste 25 Sudeste 0 933.9 -- 34
2021-02-14 15:00:00 17.9 13 Sur 25 Sudeste 0 933.9 -- 35
2021-02-14 14:00:00 16.8 11 Sudeste 24 Sudeste 0 934.3 -- 40
2021-02-14 13:00:00 14.1 12 Sudeste 30 Sudeste 0 934.6 -- 48
2021-02-14 12:00:00 11.1 16 Sudeste 30 Sudeste 0 934.6 -- 57
2021-02-14 11:00:00 7.9 9 Sudeste 15 Sudeste 0 934.4 -- 74
2021-02-14 10:00:00 5.9 6 Sudeste 14 Sudeste 0 933.9 -- 80
2021-02-14 09:00:00 4.8 7 Sudeste 12 Sudeste 0 933.5 -- 81
2021-02-14 08:00:00 5.5 7 Este 13 Este 0 932.8 -- 80
2021-02-14 07:00:00 5.8 6 Este 12 Este 0 932.3 -- 78
2021-02-14 06:00:00 5.4 3 Nordeste 10 Este 0 932.2 -- 78
2021-02-14 05:00:00 6.3 7 Este 12 Este 0 931.9 -- 74
2021-02-14 04:00:00 6.9 3 Este 10 Este 0 932.1 -- 71
2021-02-14 03:00:00 7.1 5 Este 17 Este 0 932.1 -- 71
2021-02-14 02:00:00 7.4 5 Este 13 Este 0 932.4 -- 74
2021-02-14 01:00:00 7.2 3 Nordeste 7 Norte 0 932.4 -- 77
2021-02-14 00:00:00 7.9 3 Noroeste 8 Noroeste 0 932.4 -- 73
2021-02-13 23:00:00 8.2 3 Noroeste 9 Oeste 0 932 -- 72
2021-02-13 22:00:00 8.9 4 Noroeste 12 Noroeste 0 931.9 -- 70
2021-02-13 21:00:00 9.4 4 Oeste 11 Oeste 0 931.5 -- 66
2021-02-13 20:00:00 10.9 4 Noroeste 13 Sur 0 931.2 -- 59
2021-02-13 19:00:00 13.1 3 Noroeste 15 Oeste 0 930.7 -- 52
2021-02-13 18:00:00 16.5 7 Oeste 28 Oeste 0 930.1 -- 42
2021-02-13 17:00:00 16.6 13 Noroeste 27 Noroeste 0 930.3 -- 38
2021-02-13 16:00:00 16.8 12 Noroeste 25 Noroeste 0 930.2 -- 38
2021-02-13 15:00:00 15.9 9 Oeste 22 Noroeste 0 930.5 -- 45
2021-02-13 14:00:00 13.4 10 Oeste 23 Oeste 0 930.9 -- 58
2021-02-13 13:00:00 10.4 14 Sudoeste 22 Oeste 0 931.4 -- 71
2021-02-13 08:00:00 3.8 8 Sur 17 Sudeste 0 930.2 0.9 88
2021-02-13 07:00:00 4.4 10 Sudeste 16 Sudeste 0 929.8 0.3 85
2021-02-13 06:00:00 5.1 4 Sudeste 9 Sudeste 0 929.6 -0.2 80
2021-02-13 05:00:00 6 3 Noroeste 13 Noroeste 0 929.3 -0.2 78
2021-02-13 04:00:00 6.2 7 Noroeste 16 Noroeste 0 929.5 0.3 77
2021-02-13 03:00:00 6.4 8 Noroeste 17 Noroeste 0 929.8 0.8 76
2021-02-13 02:00:00 6.5 9 Noroeste 21 Noroeste 0 929.5 0.6 75
2021-02-13 01:00:00 6.6 8 Oeste 19 Oeste 0 929.2 0.6 75
2021-02-13 00:00:00 6.9 5 Noroeste 17 Oeste 0 929 1 75
2021-02-12 23:00:00 7.5 9 Oeste 28 Oeste 0 928.9 1.1 73
2021-02-12 22:00:00 7.7 6 Oeste 16 Noroeste 0 928.6 1.3 71
2021-02-12 21:00:00 8.7 10 Noroeste 30 Oeste 0 928 1.3 67
2021-02-12 20:00:00 9.2 14 Oeste 26 Oeste 0 927.8 1.3 65
2021-02-12 19:00:00 10.7 12 Oeste 32 Oeste 0 927.3 1.2 60
2021-02-12 18:00:00 13.9 16 Noroeste 35 Noroeste 0 926.7 0.7 49
2021-02-12 17:00:00 13.8 16 Oeste 34 Oeste 0 926.5 0.3 50
2021-02-12 16:00:00 12.8 17 Oeste 36 Oeste 0 926.1 0 60
2021-02-12 15:00:00 12 16 Oeste 40 Noroeste 0 926 0.2 66
2021-02-12 14:00:00 12.8 24 Noroeste 51 Noroeste 0 926.2 0.9 53
2021-02-12 13:00:00 12 23 Noroeste 43 Noroeste 0 926.1 1.3 61
2021-02-12 12:00:00 10.4 19 Oeste 40 Oeste 0 925.8 1.6 75
2021-02-12 11:00:00 9.4 21 Oeste 42 Oeste 0 925.3 1.5 88
2021-02-12 10:00:00 8.8 18 Oeste 36 Oeste 0 924.8 1.2 90
2021-02-12 09:00:00 8.3 19 Sudoeste 38 Sudoeste 0 924.2 -- 89
2021-02-12 08:00:00 9.1 14 Sudoeste 24 Sudoeste 0 923.8 -- 94
2021-02-12 07:00:00 9.3 11 Sur 25 Sur 0 923.6 -- 93
2021-02-12 06:00:00 8.9 11 Sudoeste 23 Sur 0 923.8 -- 93
2021-02-12 05:00:00 9.1 11 Sur 21 Sur 0 923.6 -- 92
2021-02-12 04:00:00 9.7 10 Sur 19 Sur 0 924 -- 91
2021-02-12 03:00:00 9.9 9 Sur 20 Sur 0 924.4 -- 91
2021-02-12 02:00:00 10 6 Sur 17 Sur 0 924.4 -- 90
2021-02-12 01:00:00 10.2 8 Sur 17 Sur 0 924.7 -- 90
2021-02-12 00:00:00 10.6 8 Sur 15 Sur 0 925 -- 90
2021-02-11 23:00:00 10.8 4 Sur 13 Sur 0 925.1 -- 89
2021-02-11 22:00:00 10.9 8 Sudoeste 14 Sudoeste 0 925.4 -- 89
2021-02-11 21:00:00 11.3 8 Sudoeste 13 Sudoeste 0 925.5 -- 88
2021-02-11 20:00:00 11.7 4 Sudoeste 9 Sur 0 925.5 -- 86
2021-02-11 19:00:00 12.1 4 Sudoeste 15 Sudoeste 0 925.3 -- 84
2021-02-11 18:00:00 12.6 3 Noroeste 15 Oeste 0 925.1 -- 81
2021-02-11 17:00:00 12.7 11 Sudoeste 20 Sudoeste 0 925.2 -- 80
2021-02-11 16:00:00 13.2 12 Sudoeste 24 Sudoeste 0 925.1 -- 80
2021-02-11 15:00:00 12.2 12 Sudoeste 22 Sudoeste 0 925.6 -- 87
2021-02-11 14:00:00 12.2 9 Sudoeste 21 Sudoeste 0 926 -- 84
2021-02-11 13:00:00 10.9 9 Sudoeste 26 Sudoeste 0 926.6 -- 91
2021-02-11 12:00:00 10.4 13 Sur 25 Sudoeste 0 926.3 -- 93
2021-02-11 11:00:00 9.2 7 Sur 17 Sur 0 926.2 -- 93
2021-02-11 10:00:00 7.9 7 Sur 14 Sur 0 926 -- 93
2021-02-11 09:00:00 7 6 Sur 18 Sur 0 925.7 -- 92
2021-02-11 08:00:00 6.9 6 Sur 13 Sur 0 925 -- 90
2021-02-11 07:00:00 6.9 5 Sur 13 Sur 0 924.7 -- 90
2021-02-11 06:00:00 6.3 4 Sur 13 Sudeste 0 924.6 -- 90
2021-02-11 05:00:00 5.8 8 Sudeste 18 Sur 0 924.6 -- 87
2021-02-11 04:00:00 6.4 8 Sur 15 Sur 0 924.9 -- 86
2021-02-11 03:00:00 6.4 7 Sur 17 Sudeste 0 924.7 -- 84
2021-02-11 02:00:00 6.5 5 Sur 18 Sudoeste 0 924.7 -- 81
2021-02-11 01:00:00 6.4 14 Sudoeste 23 Sudoeste 0 924.2 -- 81
2021-02-11 00:00:00 5.9 12 Sudoeste 21 Sudoeste 0 923.6 -- 82
2021-02-10 23:00:00 6.6 11 Sudoeste 19 Sudoeste 0 923 -- 79
2021-02-10 22:00:00 6.9 10 Oeste 28 Oeste 0 922.4 -- 75
2021-02-10 21:00:00 8.1 10 Oeste 25 Oeste 0 921.9 -- 71
2021-02-10 20:00:00 8.6 14 Oeste 24 Oeste 0 921.2 -- 68
2021-02-10 19:00:00 10.4 7 Noroeste 27 Oeste 0 920.5 -- 63
2021-02-10 18:00:00 12.4 16 Oeste 36 Sudoeste 0 920.2 -- 51
2021-02-10 17:00:00 13.1 21 Oeste 38 Oeste 0 919.6 -- 51
2021-02-10 16:00:00 13.2 19 Oeste 40 Oeste 0 919.5 -- 50
2021-02-10 15:00:00 12.9 14 Oeste 37 Oeste 0 919 -- 54
2021-02-10 14:00:00 11.8 19 Oeste 33 Oeste 0 918.5 -- 57
2021-02-10 13:00:00 10.4 21 Oeste 45 Oeste 0 918.2 -- 64
2021-02-10 12:00:00 8.6 16 Oeste 39 Oeste 0 917.7 -- 79
2021-02-10 11:00:00 7.3 17 Oeste 48 Oeste 0 916.4 -- 89
2021-02-10 10:00:00 6.9 18 Oeste 49 Oeste 0 915.1 -- 89
2021-02-10 09:00:00 6.8 26 Oeste 57 Sudoeste 0 913.8 -- 89
2021-02-10 08:00:00 6.7 26 Oeste 57 Oeste 0 912.9 -- 89
2021-02-10 07:00:00 6.7 23 Oeste 67 Oeste 0 911.9 -- 87
2021-02-10 06:00:00 6.7 40 Sudoeste 76 Sudoeste 0 910.5 -- 81
2021-02-10 05:00:00 6 28 Sudoeste 49 Sudoeste 0 910.4 -- 84
2021-02-10 04:00:00 5.8 23 Sudoeste 39 Sudoeste 0 911.1 -- 93
2021-02-10 03:00:00 5.7 14 Sudoeste 34 Sudoeste 0 911.5 -- 90
2021-02-10 02:00:00 6 16 Sudoeste 31 Sudoeste 0 912 -- 86
2021-02-10 01:00:00 5.9 18 Sudoeste 41 Oeste 0 911.8 -- 85
2021-02-10 00:00:00 6.2 11 Oeste 54 Oeste 0 911.8 -- 88
2021-02-09 23:00:00 6.3 27 Sudoeste 42 Sudoeste 0 911.4 -- 85
2021-02-09 22:00:00 6 14 Sudoeste 31 Sudoeste 0 911.1 -- 92
2021-02-09 21:00:00 6.7 17 Sudoeste 32 Sudoeste 0 910.8 -- 91
2021-02-09 20:00:00 6.9 17 Sudoeste 28 Sudoeste 0 910.6 -- 91
2021-02-09 19:00:00 6.9 19 Sudoeste 39 Sudoeste 0 910.4 -- 90
2021-02-09 18:00:00 7 25 Sudoeste 47 Oeste 0 910.4 -- 91
2021-02-09 17:00:00 7.1 27 Oeste 81 Oeste 0 910.6 -- 89
2021-02-09 16:00:00 8.5 35 Sudoeste 64 Sudoeste 0 909.5 -- 87
2021-02-09 15:00:00 8.6 32 Sudoeste 61 Sudoeste 0 909.3 -- 88
2021-02-09 14:00:00 8.2 21 Sur 48 Sur 0 910 -- 89
2021-02-09 13:00:00 7.8 17 Sur 41 Sur 0 911.6 -- 88
2021-02-09 12:00:00 7.8 18 Sur 46 Sur 0 912.5 -- 87
2021-02-09 11:00:00 7.3 17 Sur 38 Sur 0 912.9 -- 86
2021-02-09 10:00:00 6.2 14 Sur 39 Sudoeste 0 913.5 -- 93
2021-02-09 09:00:00 5.6 12 Sur 30 Sur 0 913.5 -- 94
2021-02-09 08:00:00 5.6 13 Sur 32 Sur 0 913.8 -- 93
2021-02-09 07:00:00 5.4 10 Sur 23 Sur 0 914.1 -- 91
2021-02-09 06:00:00 5.4 9 Sudoeste 22 Sudoeste 0 914.7 -- 91
2021-02-09 05:00:00 5.2 9 Sur 18 Sur 0 915.1 -- 90
2021-02-09 04:00:00 4.8 8 Sudoeste 41 Sudoeste 0 915.6 -- 88
2021-02-09 03:00:00 5.3 23 Sudoeste 41 Sudoeste 0 915.8 -- 82
2021-02-09 02:00:00 4.9 12 Sudoeste 29 Oeste 0 915.7 -- 85
2021-02-09 01:00:00 4.6 8 Sur 30 Sudoeste 0 915.6 -- 83
2021-02-09 00:00:00 5.3 19 Sudoeste 40 Sudoeste 0 914.9 -- 79
2021-02-08 23:00:00 6.1 24 Oeste 54 Oeste 0 914.5 -- 76
2021-02-08 22:00:00 6.5 26 Oeste 57 Oeste 0 913.9 -- 76
2021-02-08 21:00:00 6.8 30 Oeste 58 Oeste 0 913 -- 75
2021-02-08 20:00:00 7.2 29 Oeste 66 Oeste 0 912.1 -- 77
2021-02-08 19:00:00 8 27 Oeste 52 Oeste 0 911.4 -- 71
2021-02-08 18:00:00 9.1 31 Oeste 61 Oeste 0 910.7 -- 65
2021-02-08 17:00:00 10 32 Oeste 56 Oeste 0 910.4 -- 64
2021-02-08 16:00:00 8.9 28 Oeste 52 Sudoeste 0 910.1 -- 66
2021-02-08 15:00:00 8.9 26 Oeste 57 Oeste 0 910 -- 74
2021-02-08 14:00:00 7.7 24 Oeste 55 Oeste 0 910.4 -- 78
2021-02-08 13:00:00 7.5 25 Oeste 52 Oeste 0 911 -- 83
2021-02-08 12:00:00 6.5 27 Oeste 54 Oeste 0 911.2 -- 85
2021-02-08 11:00:00 6.3 22 Oeste 51 Oeste 0 910.7 -- 92
2021-02-08 10:00:00 6.2 20 Oeste 54 Oeste 0 909.8 -- 94
2021-02-08 09:00:00 6 23 Oeste 53 Oeste 0 909 -- 91
2021-02-08 08:00:00 6 15 Sudoeste 27 Sudoeste 0 908 -- 95
2021-02-08 07:00:00 5.6 12 Sudoeste 28 Sudoeste 0 908.6 -- 95
2021-02-08 06:00:00 5.3 13 Sur 42 Sur 0 909.3 -- 94
2021-02-08 05:00:00 5.5 15 Sur 34 Sur 0 909.8 -- 93
2021-02-08 04:00:00 5.5 13 Sur 43 Sudoeste 0 911 -- 93
2021-02-08 03:00:00 5.5 21 Sudoeste 37 Sudoeste 0 911.6 -- 92
2021-02-08 02:00:00 5.4 18 Sudoeste 32 Sudoeste 0 912.6 -- 92
2021-02-08 01:00:00 5 14 Sudoeste 32 Sudoeste 0 913.4 -- 93
2021-02-08 00:00:00 4.8 15 Sudoeste 34 Sudoeste 0 914 -- 93
2021-02-07 23:00:00 4.4 20 Sudoeste 37 Oeste 0 914.3 -- 92
2021-02-07 22:00:00 4.3 21 Oeste 39 Oeste 0 914.6 -- 89
2021-02-07 21:00:00 4.9 19 Oeste 46 Oeste 0 914.8 -- 84
2021-02-07 20:00:00 6.5 23 Oeste 41 Oeste 0 914.4 -- 75
2021-02-07 19:00:00 7.3 21 Oeste 40 Oeste 0 913.9 -- 66
2021-02-07 18:00:00 8 23 Oeste 42 Oeste 0 913.4 -- 68
2021-02-07 17:00:00 8.9 18 Oeste 34 Oeste 0 913.2 -- 66
2021-02-07 16:00:00 9.3 22 Oeste 38 Oeste 0 912.9 -- 61
2021-02-07 15:00:00 8.7 12 Oeste 32 Oeste 0 913.3 -- 62
2021-02-07 14:00:00 8.6 12 Oeste 25 Sudoeste 0 913.6 -- 62
2021-02-07 13:00:00 7.9 11 Sudoeste 22 Sudoeste 0 914.1 -- 69
2021-02-07 12:00:00 6.8 4 Noroeste 13 Este 0 914.3 -- 68
2021-02-07 11:00:00 5.6 3 Sudoeste 9 Norte 0 914.1 -- 75
2021-02-07 10:00:00 4.8 3 Noroeste 13 Noroeste 0 913.9 -- 84
2021-02-07 09:00:00 4.3 4 Noroeste 14 Norte 0 913.4 -- 91
2021-02-07 08:00:00 4.3 8 Norte 13 Norte 0 912.7 -- 91
2021-02-07 07:00:00 4.3 4 Noroeste 13 Norte 0 912.3 -- 91
2021-02-07 06:00:00 4.2 6 Norte 14 Norte 0 912.3 -- 93
2021-02-07 05:00:00 4.3 7 Norte 20 Norte 0 912 -- 93
2021-02-07 04:00:00 5 13 Norte 22 Norte 0 911.9 -- 93
2021-02-07 03:00:00 5.7 7 Norte 24 Norte 0 911.7 -- 93
2021-02-07 02:00:00 6.2 12 Norte 24 Noroeste 0 911.6 -- 94
2021-02-07 01:00:00 7.1 8 Oeste 15 Sudoeste 0 911.5 -- 93
2021-02-07 00:00:00 7.2 8 Sudoeste 13 Sudoeste 0 911.3 -- 92
2021-02-06 23:00:00 7.2 5 Sur 12 Sudoeste 0 911.1 -- 91
2021-02-06 22:00:00 6.9 5 Sudoeste 13 Oeste 0 910.9 -- 90
2021-02-06 21:00:00 6.8 8 Oeste 28 Sudoeste 0 910.7 -- 90
2021-02-06 20:00:00 7 11 Sudoeste 20 Sudoeste 0 910.4 -- 90
2021-02-06 19:00:00 7.3 10 Sudoeste 23 Sudoeste 0 909.7 -- 87
2021-02-06 18:00:00 8.1 3 Noroeste 17 Sudoeste 0 909.2 -- 90
2021-02-06 17:00:00 7.9 12 Oeste 32 Oeste 0 909 -- 90
2021-02-06 16:00:00 9.7 17 Sudoeste 32 Sudoeste 0 908.3 -- 73
2021-02-06 15:00:00 9.9 21 Sudoeste 34 Sudoeste 0 908.3 -- 72
2021-02-06 14:00:00 9.3 17 Sudoeste 34 Sudoeste 0 908.6 -- 84
2021-02-06 13:00:00 9.8 15 Sudoeste 33 Sudoeste 0 909.1 -- 79
2021-02-06 12:00:00 8.5 17 Sudoeste 28 Sur 0 909.3 -- 89
2021-02-06 11:00:00 7.7 12 Sur 29 Sudoeste 0 909 -- 90
2021-02-06 10:00:00 7.2 12 Sudeste 22 Sudeste 0 908.9 -- 91
2021-02-06 09:00:00 6.9 8 Sudeste 22 Sudeste 0 908.7 -- 92
2021-02-06 08:00:00 6.9 10 Sudeste 17 Sudeste 0 908.3 -- 92
2021-02-06 07:00:00 7.1 9 Sudeste 17 Sudeste 0 908.4 -- 93
2021-02-06 06:00:00 6.7 4 Sur 21 Sur 0 908.5 -- 91
2021-02-06 05:00:00 7.4 8 Sur 20 Sudeste 0 908.3 -- 91
2021-02-06 04:00:00 8.1 6 Sur 15 Sudeste 0 908.8 -- 91
2021-02-06 03:00:00 8.3 7 Sudeste 21 Sudeste 0 908.6 -- 90
2021-02-06 02:00:00 8.5 10 Sudeste 21 Sudeste 0 909.3 -- 88
2021-02-06 01:00:00 8.6 12 Sudeste 21 Sudeste 0 909.7 -- 87
2021-02-06 00:00:00 8.8 12 Sudeste 27 Sudeste 0 910.1 -- 87
2021-02-05 23:00:00 9 13 Sudeste 46 Sur 0 910.1 -- 86
2021-02-05 22:00:00 9.3 14 Sur 50 Sudeste 0 910.4 -- 85
2021-02-05 21:00:00 9.6 24 Sudeste 53 Sudeste 0 909.4 -- 75
2021-02-05 20:00:00 10.8 23 Sudeste 46 Sudeste 0 907.8 -- 68
2021-02-05 19:00:00 12.1 22 Sudeste 44 Sudeste 0 907.8 -- 63
2021-02-05 18:00:00 14.4 21 Sudeste 42 Sudeste 0 908.4 -- 56
2021-02-05 17:00:00 16.3 22 Sudeste 41 Este 0 908.6 -- 51
2021-02-05 16:00:00 16.9 19 Este 43 Sudeste 0 909 -- 50
2021-02-05 15:00:00 17 25 Sudeste 43 Sudeste 0 909.5 -- 50
2021-02-05 14:00:00 16.1 23 Sudeste 46 Sudeste 0 910.5 -- 50
2021-02-05 13:00:00 14.1 26 Sudeste 48 Sudeste 0 911.4 -- 58
2021-02-05 12:00:00 11.8 26 Sudeste 45 Sudeste 0 911.9 -- 65
2021-02-05 11:00:00 9.6 23 Sudeste 41 Sudeste 0 911.9 -- 73
2021-02-05 10:00:00 8.8 23 Sudeste 48 Sudeste 0 911.9 -- 72
2021-02-05 09:00:00 8.4 22 Sudeste 46 Sudeste 0 911.4 -- 71
2021-02-05 08:00:00 9.4 26 Sudeste 48 Sudeste 0 911.2 -- 63
2021-02-05 07:00:00 9.8 21 Sudeste 35 Sudeste 0 911.6 -- 61
2021-02-05 06:00:00 10.6 12 Este 24 Este 0 912.3 -- 61
2021-02-05 05:00:00 10.9 10 Este 22 Este 0 913 -- 63
2021-02-05 04:00:00 10.8 10 Este 25 Este 0 914 -- 65
2021-02-05 03:00:00 10.4 9 Este 23 Este 0 914.5 -- 69
2021-02-05 02:00:00 10.7 12 Este 23 Este 0 914.7 -- 70
2021-02-05 01:00:00 10.9 14 Este 25 Sudeste 0 915.5 -- 69
2021-02-05 00:00:00 11 11 Este 24 Este 0 915.7 -- 66
2021-02-04 23:00:00 11.1 5 Este 11 Este 0 916.5 -- 67
2021-02-04 22:00:00 11.3 6 Este 11 Este 0 916.5 -- 67
2021-02-04 21:00:00 11.5 4 Sudeste 8 Sudeste 0 916.6 -- 67
2021-02-04 20:00:00 12 3 Sur 10 Sudeste 0 916.5 -- 65
2021-02-04 19:00:00 12.4 4 Sudoeste 19 Sudoeste 0 916.2 -- 62
2021-02-04 18:00:00 13.9 13 Sudoeste 27 Sudoeste 0 915.8 -- 56
2021-02-04 17:00:00 15.5 14 Sudoeste 33 Sudoeste 0 915.7 -- 51
2021-02-04 16:00:00 15.3 20 Sudoeste 40 Sur 0 915.5 -- 47
2021-02-04 15:00:00 15.7 17 Sur 36 Sudoeste 0 915.4 -- 45
2021-02-04 14:00:00 14.9 16 Sudeste 34 Sudeste 0 915.4 -- 56
2021-02-04 13:00:00 13.3 16 Sudeste 39 Sudeste 0 915.6 -- 68
2021-02-04 12:00:00 10 18 Sudeste 33 Sudeste 0 916.9 -- 82
2021-02-04 11:00:00 8.3 12 Sudeste 26 Sudeste 0 917.6 -- 89
2021-02-04 10:00:00 7.8 13 Sudeste 21 Sudeste 0 918 -- 91
2021-02-04 09:00:00 7.5 10 Sudeste 19 Sudeste 0 918.1 -- 89
2021-02-04 08:00:00 7.4 9 Sudeste 16 Sudeste 0 918 -- 89
2021-02-04 07:00:00 7 7 Sudeste 19 Sur 0 918.1 -- 88
2021-02-04 06:00:00 7.4 9 Sudeste 15 Sudeste 0 918.2 -- 88
2021-02-04 05:00:00 7.8 9 Sudeste 16 Sudeste 0 918.6 -- 86
2021-02-04 04:00:00 7.7 10 Sudeste 15 Sudeste 0 919.1 -- 87
2021-02-04 03:00:00 7.8 10 Sudeste 21 Sudeste 0 919.3 -- 87
2021-02-04 02:00:00 8.2 12 Sudeste 20 Sur 0 919.5 -- 86
2021-02-04 01:00:00 8.5 12 Sudeste 21 Sudeste 0 919.9 -- 84
2021-02-04 00:00:00 8.4 13 Sudeste 23 Sudeste 0 919.8 -- 84
2021-02-03 23:00:00 8.9 13 Sudeste 26 Sudeste 0 919.9 -- 82
2021-02-03 22:00:00 9.1 8 Sudeste 15 Sudeste 0 919.8 -- 82
2021-02-03 21:00:00 10 8 Sudeste 16 Sudeste 0 920.1 -- 80
2021-02-03 20:00:00 10.8 7 Sur 19 Sur 0 920.1 -- 78
2021-02-03 19:00:00 11.5 7 Sur 19 Sudoeste 0 920.1 -- 76
2021-02-03 18:00:00 12.8 11 Sudoeste 20 Sudoeste 0 919.9 -- 70
2021-02-03 17:00:00 13.2 9 Sur 25 Sudoeste 0 920.1 -- 68
2021-02-03 16:00:00 14.4 14 Sudoeste 32 Sudeste 0 920.4 -- 63
2021-02-03 15:00:00 14.9 13 Sur 28 Sudeste 0 920.6 -- 62
2021-02-03 14:00:00 12.4 16 Sudoeste 28 Sudoeste 0 921.3 -- 69
2021-02-03 13:00:00 11 14 Sudoeste 37 Sudoeste 0 922 -- 75
2021-02-03 12:00:00 11.1 14 Sur 30 Sur 0 922.4 -- 77
2021-02-03 11:00:00 9.2 12 Sur 29 Sudeste 0 922.5 -- 84
2021-02-03 10:00:00 8.1 12 Sur 28 Sur 0 922.1 -- 88
2021-02-03 09:00:00 7.6 10 Sur 23 Sur 0 921.8 -- 90
2021-02-03 08:00:00 7.7 10 Sur 26 Sudoeste 0 921.5 -- 90
2021-02-03 07:00:00 7.6 9 Sur 21 Sur 0 921.4 -- 89
2021-02-03 06:00:00 7.3 7 Sur 19 Sur 0 921.5 -- 89
2021-02-03 05:00:00 7.7 8 Sur 19 Sur 0 921.8 -- 87
2021-02-03 04:00:00 8.1 9 Sur 16 Sur 0 922.1 -- 85
2021-02-03 03:00:00 8.3 7 Sur 16 Sur 0 922.5 -- 85
2021-02-03 02:00:00 8.3 7 Sur 14 Sur 0 922.7 -- 84
2021-02-03 01:00:00 8.5 5 Sudeste 18 Sudoeste 0 922.9 -- 84
2021-02-03 00:00:00 8.7 9 Sudoeste 20 Sudoeste 0 922.9 -- 82
2021-02-02 23:00:00 8.9 10 Sudoeste 21 Sudoeste 0 923.1 -- 82
2021-02-02 22:00:00 8.9 12 Sudoeste 23 Sudoeste 0 922.9 -- 81
2021-02-02 21:00:00 8.9 8 Sudoeste 21 Sudoeste 0 923.1 -- 84
2021-02-02 20:00:00 9.5 13 Sudoeste 22 Sudoeste 0 923 -- 80
2021-02-02 19:00:00 11 13 Sudoeste 26 Sudoeste 0 922.7 -- 76
2021-02-02 18:00:00 11.9 13 Sudoeste 28 Sudoeste 0 922.9 -- 72
2021-02-02 17:00:00 14.2 14 Sudoeste 26 Sudoeste 0 922.5 -- 63
2021-02-02 16:00:00 13 15 Sudoeste 27 Sudoeste 0 923.1 -- 69
2021-02-02 15:00:00 12.8 15 Sudoeste 30 Sudoeste 0 923.6 -- 69
2021-02-02 14:00:00 12 13 Sudoeste 26 Sudoeste 0 924.2 -- 75
2021-02-02 13:00:00 11.9 14 Sudoeste 30 Sudoeste 0 924.9 -- 77
2021-02-02 12:00:00 10.5 15 Sudoeste 28 Sur 0 925.5 -- 87
2021-02-02 11:00:00 8.6 12 Sudoeste 23 Sur 0 925.5 -- 94
2021-02-02 10:00:00 7.2 10 Sur 26 Sudoeste 0 925.4 -- 95
2021-02-02 09:00:00 6.8 11 Sur 23 Sur 0 925.1 -- 94
2021-02-02 08:00:00 6.5 10 Sur 21 Sur 0 924.7 -- 94
2021-02-02 07:00:00 6.8 9 Sur 23 Sudoeste 0 924.8 -- 93
2021-02-02 06:00:00 7.7 14 Sudoeste 31 Sudoeste 0 925.1 -- 93
2021-02-02 05:00:00 7.6 21 Sudoeste 34 Oeste 0 924.8 -- 92
2021-02-02 04:00:00 7.6 21 Oeste 49 Sudoeste 0 924.5 -- 91
2021-02-02 03:00:00 7.6 22 Oeste 45 Oeste 0 924.4 -- 90
2021-02-02 02:00:00 7.8 22 Oeste 41 Oeste 0 924.3 -- 88
2021-02-02 01:00:00 7.8 12 Oeste 26 Noroeste 0 924.6 -- 84
2021-02-02 00:00:00 8.1 10 Noroeste 27 Oeste 0 924.5 -- 84
2021-02-01 23:00:00 8.4 13 Oeste 32 Sudoeste 0 924.6 -- 84
2021-02-01 22:00:00 8.9 18 Oeste 31 Oeste 0 924.6 -- 84
2021-02-01 21:00:00 9 14 Oeste 29 Sudoeste 0 924.3 -- 82
2021-02-01 20:00:00 9.4 13 Sudoeste 41 Oeste 0 923.7 -- 81
2021-02-01 19:00:00 10.3 19 Oeste 38 Oeste 0 923.5 -- 77
2021-02-01 18:00:00 11.9 21 Oeste 42 Oeste 0 922.8 -- 72
2021-02-01 17:00:00 14.2 25 Oeste 46 Oeste 0 922.7 -- 62
2021-02-01 16:00:00 15.1 28 Oeste 52 Oeste 0 922.3 -- 60
2021-02-01 15:00:00 14.8 28 Oeste 46 Oeste 0 922.1 -- 61
2021-02-01 14:00:00 14.8 19 Oeste 47 Oeste 0 922.2 -- 61
2021-02-01 13:00:00 12.6 26 Oeste 49 Oeste 0 922.5 -- 67
2021-02-01 12:00:00 10.7 27 Oeste 48 Oeste 0 922.1 -- 74
2021-02-01 11:00:00 9.3 33 Oeste 59 Oeste 0 921.7 -- 78
2021-02-01 10:00:00 8.4 30 Oeste 59 Oeste 0 921.4 -- 80
2021-02-01 09:00:00 7.5 32 Oeste 60 Oeste 0 920.7 -- 85
2021-02-01 08:00:00 7.6 27 Oeste 49 Oeste 0 920 -- 86
2021-02-01 07:00:00 8 27 Oeste 52 Oeste 0 919.4 -- 87
2021-02-01 06:00:00 8.5 26 Oeste 49 Oeste 0 919.7 -- 88
2021-02-01 05:00:00 9 21 Oeste 44 Sudoeste 0 919.8 -- 90
2021-02-01 04:00:00 9.4 25 Oeste 48 Oeste 0 919.5 -- 89
2021-02-01 03:00:00 9.8 23 Oeste 54 Oeste 0 919.5 -- 89
2021-02-01 02:00:00 9.8 23 Oeste 48 Oeste 0 919.3 -- 89
2021-02-01 01:00:00 10.1 23 Oeste 47 Oeste 0 919.6 -- 90
2021-02-01 00:00:00 10.6 21 Oeste 45 Oeste 0 920 -- 89
2021-01-31 23:00:00 11 21 Oeste 55 Oeste 0 919.5 -- 90
2021-01-31 22:00:00 11.2 23 Oeste 54 Oeste 0 919.7 -- 90
2021-01-31 21:00:00 11 25 Oeste 47 Oeste 0 919.4 -- 91
2021-01-31 20:00:00 11.2 23 Oeste 44 Sudoeste 0 919.5 -- 89
2021-01-31 19:00:00 11.2 27 Oeste 48 Oeste 0 919.3 -- 88
2021-01-31 18:00:00 11 26 Oeste 45 Oeste 0 919.4 -- 87
2021-01-31 17:00:00 10.8 28 Oeste 50 Oeste 0 919.3 -- 89
2021-01-31 16:00:00 9.6 31 Oeste 58 Oeste 0 919.3 -- 93
2021-01-31 15:00:00 9.2 24 Oeste 40 Oeste 0 919.6 -- 93
2021-01-31 14:00:00 8.4 21 Sudoeste 40 Sudoeste 0 920.1 -- 93
2021-01-31 13:00:00 7.6 19 Sudoeste 38 Sudoeste 0 920.9 -- 89
2021-01-31 12:00:00 8.3 28 Sudoeste 47 Oeste 0 921.2 -- 81
2021-01-31 11:00:00 7.6 24 Oeste 46 Oeste 0 921.2 -- 81
2021-01-31 10:00:00 6.9 23 Oeste 46 Oeste 0 920.8 -- 81
2021-01-31 09:00:00 5.9 22 Oeste 39 Oeste 0 920.2 -- 81
2021-01-31 08:00:00 6 21 Oeste 37 Oeste 0 919.7 -- 79
2021-01-31 07:00:00 6.1 23 Oeste 45 Oeste 0 919.1 -- 76
2021-01-31 06:00:00 5.9 22 Oeste 40 Oeste 0 918.9 -- 80
2021-01-31 05:00:00 6.2 21 Oeste 42 Oeste 0 918.9 -- 78
2021-01-31 04:00:00 6.4 19 Oeste 49 Oeste 0 919.4 -- 78
2021-01-31 03:00:00 6.3 24 Oeste 49 Oeste 0 919.1 -- 81
2021-01-31 02:00:00 6.5 25 Oeste 45 Oeste 0 919.2 -- 80
2021-01-31 01:00:00 6.7 19 Oeste 44 Oeste 0 919.4 -- 77
2021-01-31 00:00:00 6.6 22 Oeste 46 Oeste 0 918.6 -- 79
2021-01-30 23:00:00 7.2 17 Oeste 46 Oeste 0 919.3 -- 81
2021-01-30 22:00:00 7.7 27 Oeste 58 Oeste 0 919.3 -- 74
2021-01-30 21:00:00 8.2 30 Oeste 60 Oeste 0 918.6 -- 71
2021-01-30 20:00:00 8.4 28 Oeste 56 Oeste 0 918.1 -- 69
2021-01-30 19:00:00 8.9 32 Oeste 57 Oeste 0 918 -- 62
2021-01-30 18:00:00 10.3 34 Oeste 63 Oeste 0 917.6 -- 57
2021-01-30 17:00:00 11.6 32 Oeste 57 Oeste 0 917.7 -- 56
2021-01-30 16:00:00 11.9 33 Oeste 57 Oeste 0 917.8 -- 58
2021-01-30 15:00:00 12.3 30 Oeste 53 Oeste 0 918.3 -- 57
2021-01-30 14:00:00 11.6 27 Oeste 58 Oeste 0 919 -- 68
2021-01-30 13:00:00 9.7 32 Oeste 61 Oeste 0 919.7 -- 78
2021-01-30 12:00:00 9.2 30 Oeste 58 Oeste 0 919.9 -- 84
2021-01-30 11:00:00 9.2 27 Oeste 59 Oeste 0 919.8 -- 87
2021-01-30 10:00:00 8.7 30 Oeste 59 Oeste 0 919.6 -- 89
2021-01-30 09:00:00 8.4 24 Oeste 44 Sudoeste 0 919.6 -- 92
2021-01-30 08:00:00 8.1 16 Sudoeste 28 Sudoeste 0 919.5 -- 94
2021-01-30 07:00:00 7.6 15 Sudoeste 24 Sudoeste 0 920.7 -- 94
2021-01-30 06:00:00 7.3 12 Sur 25 Sudoeste 0 920.8 -- 94
2021-01-30 05:00:00 7.3 8 Sur 15 Sur 0 921.6 -- 94
2021-01-30 04:00:00 6.8 8 Sudoeste 20 Oeste 0 922.6 -- 94
2021-01-30 03:00:00 7.6 7 Sudeste 14 Sudeste 0 922.1 -- 93
2021-01-30 02:00:00 8.6 3 Norte 9 Noroeste 0 923.6 -- 93
2021-01-30 01:00:00 8.4 0 Calma 6 Oeste 0 924.7 -- 92
2021-01-30 00:00:00 8.6 2 Oeste 13 Sur 0 925.2 -- 90